sensor_id;sensor_type;location;lat;lon;timestamp;temperature;humidity
55331;DHT22;58851;42.984;20.336;2023-05-10T00:00:08;307.60;128.00
55331;DHT22;58851;42.984;20.336;2023-05-10T00:02:34;307.50;128.00
55331;DHT22;58851;42.984;20.336;2023-05-10T00:05:01;307.60;128.00
55331;DHT22;58851;42.984;20.336;2023-05-10T00:07:27;307.60;128.00
55331;DHT22;58851;42.984;20.336;2023-05-10T00:09:53;307.60;128.00
55331;DHT22;58851;42.984;20.336;2023-05-10T00:12:18;307.70;128.00
55331;DHT22;58851;42.984;20.336;2023-05-10T00:14:44;307.70;128.00
55331;DHT22;58851;42.984;20.336;2023-05-10T00:17:10;307.80;128.00
55331;DHT22;58851;42.984;20.336;2023-05-10T00:19:36;307.90;128.00
55331;DHT22;58851;42.984;20.336;2023-05-10T00:22:02;307.90;128.00
55331;DHT22;58851;42.984;20.336;2023-05-10T00:24:28;307.90;128.00
55331;DHT22;58851;42.984;20.336;2023-05-10T00:26:54;307.90;128.00
55331;DHT22;58851;42.984;20.336;2023-05-10T00:29:20;307.80;128.00
55331;DHT22;58851;42.984;20.336;2023-05-10T00:31:45;307.90;128.00
55331;DHT22;58851;42.984;20.336;2023-05-10T00:34:11;307.90;128.00
55331;DHT22;58851;42.984;20.336;2023-05-10T00:36:37;307.80;128.00
55331;DHT22;58851;42.984;20.336;2023-05-10T00:39:03;307.90;128.00
55331;DHT22;58851;42.984;20.336;2023-05-10T00:41:29;307.90;128.00
55331;DHT22;58851;42.984;20.336;2023-05-10T00:43:58;307.80;128.00
55331;DHT22;58851;42.984;20.336;2023-05-10T00:46:24;307.90;128.00
55331;DHT22;58851;42.984;20.336;2023-05-10T00:48:51;307.90;128.00
55331;DHT22;58851;42.984;20.336;2023-05-10T00:51:17;307.90;128.00
55331;DHT22;58851;42.984;20.336;2023-05-10T00:53:45;308.00;128.00
55331;DHT22;58851;42.984;20.336;2023-05-10T00:56:11;308.00;128.00
55331;DHT22;58851;42.984;20.336;2023-05-10T00:58:38;308.10;128.00
55331;DHT22;58851;42.984;20.336;2023-05-10T01:01:05;308.10;128.00
55331;DHT22;58851;42.984;20.336;2023-05-10T01:03:32;308.10;128.00
55331;DHT22;58851;42.984;20.336;2023-05-10T01:05:58;308.10;128.00
55331;DHT22;58851;42.984;20.336;2023-05-10T01:08:24;308.10;128.00
55331;DHT22;58851;42.984;20.336;2023-05-10T01:10:50;308.10;128.00
55331;DHT22;58851;42.984;20.336;2023-05-10T01:13:37;332.80;128.00
55331;DHT22;58851;42.984;20.336;2023-05-10T01:16:03;332.80;128.00
55331;DHT22;58851;42.984;20.336;2023-05-10T01:18:32;332.80;128.00
55331;DHT22;58851;42.984;20.336;2023-05-10T01:33:02;307.90;128.00
55331;DHT22;58851;42.984;20.336;2023-05-10T01:37:49;308.00;128.00
55331;DHT22;58851;42.984;20.336;2023-05-10T01:40:39;308.10;128.00
55331;DHT22;58851;42.984;20.336;2023-05-10T01:43:10;308.10;128.00
55331;DHT22;58851;42.984;20.336;2023-05-10T01:46:09;308.10;128.00
55331;DHT22;58851;42.984;20.336;2023-05-10T01:48:40;308.10;128.00
55331;DHT22;58851;42.984;20.336;2023-05-10T01:51:12;308.10;128.00
55331;DHT22;58851;42.984;20.336;2023-05-10T01:53:39;308.00;128.00
55331;DHT22;58851;42.984;20.336;2023-05-10T01:56:07;308.10;128.00
55331;DHT22;58851;42.984;20.336;2023-05-10T01:58:34;308.10;128.00
55331;DHT22;58851;42.984;20.336;2023-05-10T02:01:03;308.10;128.00
55331;DHT22;58851;42.984;20.336;2023-05-10T02:03:31;308.10;128.00
55331;DHT22;58851;42.984;20.336;2023-05-10T02:05:57;308.10;128.00
55331;DHT22;58851;42.984;20.336;2023-05-10T02:08:25;308.10;128.00
55331;DHT22;58851;42.984;20.336;2023-05-10T02:10:53;308.10;128.00
55331;DHT22;58851;42.984;20.336;2023-05-10T02:13:20;308.10;128.00
55331;DHT22;58851;42.984;20.336;2023-05-10T02:15:48;308.10;128.00
55331;DHT22;58851;42.984;20.336;2023-05-10T02:18:14;308.10;128.00
55331;DHT22;58851;42.984;20.336;2023-05-10T02:20:42;308.00;128.00
55331;DHT22;58851;42.984;20.336;2023-05-10T02:23:09;308.00;128.00
55331;DHT22;58851;42.984;20.336;2023-05-10T02:25:37;308.00;128.00
55331;DHT22;58851;42.984;20.336;2023-05-10T02:28:06;308.00;128.00
55331;DHT22;58851;42.984;20.336;2023-05-10T02:30:34;308.10;128.00
55331;DHT22;58851;42.984;20.336;2023-05-10T02:33:01;308.10;128.00
55331;DHT22;58851;42.984;20.336;2023-05-10T02:35:29;308.10;128.00
55331;DHT22;58851;42.984;20.336;2023-05-10T02:37:57;308.10;128.00
55331;DHT22;58851;42.984;20.336;2023-05-10T02:40:24;308.00;128.00
55331;DHT22;58851;42.984;20.336;2023-05-10T02:42:54;307.90;128.00
55331;DHT22;58851;42.984;20.336;2023-05-10T02:45:23;307.90;128.00
55331;DHT22;58851;42.984;20.336;2023-05-10T02:47:50;307.90;128.00
55331;DHT22;58851;42.984;20.336;2023-05-10T02:50:16;307.90;128.00
55331;DHT22;58851;42.984;20.336;2023-05-10T02:52:47;307.80;128.00
55331;DHT22;58851;42.984;20.336;2023-05-10T02:55:16;307.90;128.00
55331;DHT22;58851;42.984;20.336;2023-05-10T02:58:01;307.90;128.00
55331;DHT22;58851;42.984;20.336;2023-05-10T03:00:27;307.90;128.00
55331;DHT22;58851;42.984;20.336;2023-05-10T03:02:54;307.80;128.00
55331;DHT22;58851;42.984;20.336;2023-05-10T03:05:20;307.80;128.00
55331;DHT22;58851;42.984;20.336;2023-05-10T03:07:46;307.80;128.00
55331;DHT22;58851;42.984;20.336;2023-05-10T03:10:12;307.90;128.00
55331;DHT22;58851;42.984;20.336;2023-05-10T03:16:08;307.90;128.00
55331;DHT22;58851;42.984;20.336;2023-05-10T03:18:13;307.90;128.00
55331;DHT22;58851;42.984;20.336;2023-05-10T03:20:50;307.90;128.00
55331;DHT22;58851;42.984;20.336;2023-05-10T03:23:27;307.80;128.00
55331;DHT22;58851;42.984;20.336;2023-05-10T03:25:55;307.60;128.00
55331;DHT22;58851;42.984;20.336;2023-05-10T03:28:24;307.60;128.00
55331;DHT22;58851;42.984;20.336;2023-05-10T03:30:53;307.60;128.00
55331;DHT22;58851;42.984;20.336;2023-05-10T03:33:19;307.60;128.00
55331;DHT22;58851;42.984;20.336;2023-05-10T03:35:45;307.50;128.00
55331;DHT22;58851;42.984;20.336;2023-05-10T03:38:12;307.60;128.00
55331;DHT22;58851;42.984;20.336;2023-05-10T03:40:39;307.60;128.00
55331;DHT22;58851;42.984;20.336;2023-05-10T03:43:04;307.70;128.00
55331;DHT22;58851;42.984;20.336;2023-05-10T03:45:30;307.70;128.00
55331;DHT22;58851;42.984;20.336;2023-05-10T03:47:57;307.80;128.00
55331;DHT22;58851;42.984;20.336;2023-05-10T03:50:23;307.90;128.00
55331;DHT22;58851;42.984;20.336;2023-05-10T03:52:49;307.90;128.00
55331;DHT22;58851;42.984;20.336;2023-05-10T03:55:15;307.90;128.00
55331;DHT22;58851;42.984;20.336;2023-05-10T03:57:41;307.90;128.00
55331;DHT22;58851;42.984;20.336;2023-05-10T04:00:08;307.90;128.00
55331;DHT22;58851;42.984;20.336;2023-05-10T04:02:34;307.90;128.00
55331;DHT22;58851;42.984;20.336;2023-05-10T04:05:00;307.90;128.00
55331;DHT22;58851;42.984;20.336;2023-05-10T04:07:25;307.90;128.00
55331;DHT22;58851;42.984;20.336;2023-05-10T04:09:51;308.00;128.00
55331;DHT22;58851;42.984;20.336;2023-05-10T04:12:17;308.00;128.00
55331;DHT22;58851;42.984;20.336;2023-05-10T04:14:43;308.00;128.00
55331;DHT22;58851;42.984;20.336;2023-05-10T04:17:09;308.00;128.00
55331;DHT22;58851;42.984;20.336;2023-05-10T04:19:35;308.10;128.00
55331;DHT22;58851;42.984;20.336;2023-05-10T04:22:02;308.10;128.00
55331;DHT22;58851;42.984;20.336;2023-05-10T04:24:28;308.10;128.00
55331;DHT22;58851;42.984;20.336;2023-05-10T04:26:55;308.10;128.00
55331;DHT22;58851;42.984;20.336;2023-05-10T04:29:21;308.10;128.00
55331;DHT22;58851;42.984;20.336;2023-05-10T04:31:46;307.90;128.00
55331;DHT22;58851;42.984;20.336;2023-05-10T04:34:12;308.00;128.00
55331;DHT22;58851;42.984;20.336;2023-05-10T04:36:38;307.90;128.00
55331;DHT22;58851;42.984;20.336;2023-05-10T04:39:04;308.00;128.00
55331;DHT22;58851;42.984;20.336;2023-05-10T04:41:30;308.10;128.00
55331;DHT22;58851;42.984;20.336;2023-05-10T04:43:55;308.10;128.00
55331;DHT22;58851;42.984;20.336;2023-05-10T04:46:21;308.10;128.00
55331;DHT22;58851;42.984;20.336;2023-05-10T04:48:47;308.10;128.00
55331;DHT22;58851;42.984;20.336;2023-05-10T04:51:13;308.10;128.00
55331;DHT22;58851;42.984;20.336;2023-05-10T04:53:39;308.10;128.00
55331;DHT22;58851;42.984;20.336;2023-05-10T04:56:05;308.00;128.00
55331;DHT22;58851;42.984;20.336;2023-05-10T04:58:31;308.00;128.00
55331;DHT22;58851;42.984;20.336;2023-05-10T05:00:57;308.10;128.00
55331;DHT22;58851;42.984;20.336;2023-05-10T05:03:23;308.10;128.00
55331;DHT22;58851;42.984;20.336;2023-05-10T05:05:48;308.00;128.00
55331;DHT22;58851;42.984;20.336;2023-05-10T05:08:14;308.10;128.00
55331;DHT22;58851;42.984;20.336;2023-05-10T05:10:40;308.10;128.00
55331;DHT22;58851;42.984;20.336;2023-05-10T05:13:06;332.90;128.00
55331;DHT22;58851;42.984;20.336;2023-05-10T05:15:31;332.80;128.00
55331;DHT22;58851;42.984;20.336;2023-05-10T05:17:57;333.00;128.00
55331;DHT22;58851;42.984;20.336;2023-05-10T05:20:23;333.10;128.00
55331;DHT22;58851;42.984;20.336;2023-05-10T05:22:49;333.20;128.00
55331;DHT22;58851;42.984;20.336;2023-05-10T05:25:15;333.40;128.00
55331;DHT22;58851;42.984;20.336;2023-05-10T05:27:41;333.40;128.00
55331;DHT22;58851;42.984;20.336;2023-05-10T05:30:07;333.50;128.00
55331;DHT22;58851;42.984;20.336;2023-05-10T05:32:33;333.50;128.00
55331;DHT22;58851;42.984;20.336;2023-05-10T05:34:59;333.60;128.00
55331;DHT22;58851;42.984;20.336;2023-05-10T05:37:25;358.40;128.00
55331;DHT22;58851;42.984;20.336;2023-05-10T05:39:51;333.70;128.00
55331;DHT22;58851;42.984;20.336;2023-05-10T05:42:16;333.70;128.00
55331;DHT22;58851;42.984;20.336;2023-05-10T05:44:44;358.40;128.00
55331;DHT22;58851;42.984;20.336;2023-05-10T05:47:10;358.50;128.00
55331;DHT22;58851;42.984;20.336;2023-05-10T05:49:36;358.50;128.00
55331;DHT22;58851;42.984;20.336;2023-05-10T05:52:02;358.60;128.00
55331;DHT22;58851;42.984;20.336;2023-05-10T05:54:29;358.60;128.00
55331;DHT22;58851;42.984;20.336;2023-05-10T05:56:56;358.70;128.00
55331;DHT22;58851;42.984;20.336;2023-05-10T05:59:22;358.80;128.00
55331;DHT22;58851;42.984;20.336;2023-05-10T06:01:48;358.90;128.00
55331;DHT22;58851;42.984;20.336;2023-05-10T06:04:14;359.00;128.00
55331;DHT22;58851;42.984;20.336;2023-05-10T06:06:40;359.10;614.40
55331;DHT22;58851;42.984;20.336;2023-05-10T06:09:06;359.00;307.20
55331;DHT22;58851;42.984;20.336;2023-05-10T06:11:31;359.10;409.60
55331;DHT22;58851;42.984;20.336;2023-05-10T06:13:58;359.10;640.00
55331;DHT22;58851;42.984;20.336;2023-05-10T06:16:24;359.30;614.40
55331;DHT22;58851;42.984;20.336;2023-05-10T06:18:50;359.30;358.40
55331;DHT22;58851;42.984;20.336;2023-05-10T06:21:16;359.30;512.00
55331;DHT22;58851;42.984;20.336;2023-05-10T06:23:42;384.10;332.80
55331;DHT22;58851;42.984;20.336;2023-05-10T06:26:08;384.00;128.00
55331;DHT22;58851;42.984;20.336;2023-05-10T06:28:33;384.10;128.00
55331;DHT22;58851;42.984;20.336;2023-05-10T06:30:59;384.30;128.00
55331;DHT22;58851;42.984;20.336;2023-05-10T06:33:25;384.20;128.00
55331;DHT22;58851;42.984;20.336;2023-05-10T06:35:51;384.20;128.00
55331;DHT22;58851;42.984;20.336;2023-05-10T06:38:17;384.30;128.00
55331;DHT22;58851;42.984;20.336;2023-05-10T06:40:43;384.20;128.00
55331;DHT22;58851;42.984;20.336;2023-05-10T06:43:10;384.20;128.00
55331;DHT22;58851;42.984;20.336;2023-05-10T06:45:36;384.30;128.00
55331;DHT22;58851;42.984;20.336;2023-05-10T06:48:02;384.50;128.00
55331;DHT22;58851;42.984;20.336;2023-05-10T06:50:28;384.50;128.00
55331;DHT22;58851;42.984;20.336;2023-05-10T06:52:53;384.60;128.00
55331;DHT22;58851;42.984;20.336;2023-05-10T06:55:21;384.60;128.00
55331;DHT22;58851;42.984;20.336;2023-05-10T06:57:46;384.60;128.00
55331;DHT22;58851;42.984;20.336;2023-05-10T07:00:13;384.70;128.00
55331;DHT22;58851;42.984;20.336;2023-05-10T07:02:39;384.60;128.00
55331;DHT22;58851;42.984;20.336;2023-05-10T07:05:05;384.70;128.00
55331;DHT22;58851;42.984;20.336;2023-05-10T07:07:31;384.80;128.00
55331;DHT22;58851;42.984;20.336;2023-05-10T07:09:57;384.80;128.00
55331;DHT22;58851;42.984;20.336;2023-05-10T07:12:23;384.80;128.00
55331;DHT22;58851;42.984;20.336;2023-05-10T07:14:49;384.80;128.00
55331;DHT22;58851;42.984;20.336;2023-05-10T07:17:15;384.90;128.00
55331;DHT22;58851;42.984;20.336;2023-05-10T07:19:41;409.70;128.00
55331;DHT22;58851;42.984;20.336;2023-05-10T07:22:07;409.80;128.00
55331;DHT22;58851;42.984;20.336;2023-05-10T07:24:33;409.90;128.00
55331;DHT22;58851;42.984;20.336;2023-05-10T07:26:59;410.10;128.00
55331;DHT22;58851;42.984;20.336;2023-05-10T07:29:25;410.30;128.00
55331;DHT22;58851;42.984;20.336;2023-05-10T07:31:52;410.50;128.00
55331;DHT22;58851;42.984;20.336;2023-05-10T07:34:17;435.40;128.00
55331;DHT22;58851;42.984;20.336;2023-05-10T07:36:43;410.50;128.00
55331;DHT22;58851;42.984;20.336;2023-05-10T07:39:09;435.40;128.00
55331;DHT22;58851;42.984;20.336;2023-05-10T07:41:35;435.60;128.00
55331;DHT22;58851;42.984;20.336;2023-05-10T07:44:03;435.70;128.00
55331;DHT22;58851;42.984;20.336;2023-05-10T07:46:29;435.70;128.00
55331;DHT22;58851;42.984;20.336;2023-05-10T07:48:55;435.80;128.00
55331;DHT22;58851;42.984;20.336;2023-05-10T07:51:21;435.80;128.00
55331;DHT22;58851;42.984;20.336;2023-05-10T07:53:47;436.00;128.00
55331;DHT22;58851;42.984;20.336;2023-05-10T07:56:25;436.10;128.00
55331;DHT22;58851;42.984;20.336;2023-05-10T07:58:53;436.10;128.00
55331;DHT22;58851;42.984;20.336;2023-05-10T08:01:19;460.80;128.00
55331;DHT22;58851;42.984;20.336;2023-05-10T08:03:45;435.80;128.00
55331;DHT22;58851;42.984;20.336;2023-05-10T08:06:11;435.80;128.00
55331;DHT22;58851;42.984;20.336;2023-05-10T08:08:37;435.80;128.00
55331;DHT22;58851;42.984;20.336;2023-05-10T08:11:03;435.90;128.00
55331;DHT22;58851;42.984;20.336;2023-05-10T08:13:29;435.80;128.00
55331;DHT22;58851;42.984;20.336;2023-05-10T08:15:57;436.00;128.00
55331;DHT22;58851;42.984;20.336;2023-05-10T08:18:22;435.90;128.00
55331;DHT22;58851;42.984;20.336;2023-05-10T08:20:48;436.10;128.00
55331;DHT22;58851;42.984;20.336;2023-05-10T08:23:14;436.00;128.00
55331;DHT22;58851;42.984;20.336;2023-05-10T08:25:41;436.00;128.00
55331;DHT22;58851;42.984;20.336;2023-05-10T08:28:06;460.80;128.00
55331;DHT22;58851;42.984;20.336;2023-05-10T08:30:32;460.90;128.00
55331;DHT22;58851;42.984;20.336;2023-05-10T08:32:58;460.90;128.00
55331;DHT22;58851;42.984;20.336;2023-05-10T08:35:24;461.00;128.00
55331;DHT22;58851;42.984;20.336;2023-05-10T08:37:51;461.10;128.00
55331;DHT22;58851;42.984;20.336;2023-05-10T08:40:19;461.10;128.00
55331;DHT22;58851;42.984;20.336;2023-05-10T08:42:54;461.30;128.00
55331;DHT22;58851;42.984;20.336;2023-05-10T08:45:23;461.30;128.00
55331;DHT22;58851;42.984;20.336;2023-05-10T08:47:50;461.40;128.00
55331;DHT22;58851;42.984;20.336;2023-05-10T08:50:19;461.30;128.00
55331;DHT22;58851;42.984;20.336;2023-05-10T08:52:46;461.30;128.00
55331;DHT22;58851;42.984;20.336;2023-05-10T08:55:14;461.30;128.00
55331;DHT22;58851;42.984;20.336;2023-05-10T08:57:40;461.60;128.00
55331;DHT22;58851;42.984;20.336;2023-05-10T09:00:07;461.70;128.00
55331;DHT22;58851;42.984;20.336;2023-05-10T09:02:34;486.50;128.00
55331;DHT22;58851;42.984;20.336;2023-05-10T09:05:00;486.40;128.00
55331;DHT22;58851;42.984;20.336;2023-05-10T09:07:27;486.40;128.00
55331;DHT22;58851;42.984;20.336;2023-05-10T09:09:53;486.40;128.00
55331;DHT22;58851;42.984;20.336;2023-05-10T09:12:19;461.70;128.00
55331;DHT22;58851;42.984;20.336;2023-05-10T09:14:46;461.70;128.00
55331;DHT22;58851;42.984;20.336;2023-05-10T09:17:12;461.50;128.00
55331;DHT22;58851;42.984;20.336;2023-05-10T09:19:38;461.60;128.00
55331;DHT22;58851;42.984;20.336;2023-05-10T09:22:04;461.70;128.00
55331;DHT22;58851;42.984;20.336;2023-05-10T09:24:30;461.70;128.00
55331;DHT22;58851;42.984;20.336;2023-05-10T09:26:57;461.70;128.00
55331;DHT22;58851;42.984;20.336;2023-05-10T09:29:23;461.70;128.00
55331;DHT22;58851;42.984;20.336;2023-05-10T09:31:51;461.50;128.00
55331;DHT22;58851;42.984;20.336;2023-05-10T09:34:30;461.40;128.00
55331;DHT22;58851;42.984;20.336;2023-05-10T09:37:01;461.50;128.00
55331;DHT22;58851;42.984;20.336;2023-05-10T09:39:36;461.40;128.00
55331;DHT22;58851;42.984;20.336;2023-05-10T09:42:07;461.50;128.00
55331;DHT22;58851;42.984;20.336;2023-05-10T09:44:34;461.50;128.00
55331;DHT22;58851;42.984;20.336;2023-05-10T09:47:00;461.60;128.00
55331;DHT22;58851;42.984;20.336;2023-05-10T09:49:26;461.70;128.00
55331;DHT22;58851;42.984;20.336;2023-05-10T09:52:03;486.40;128.00
55331;DHT22;58851;42.984;20.336;2023-05-10T09:54:30;486.70;128.00
55331;DHT22;58851;42.984;20.336;2023-05-10T09:56:56;486.90;128.00
55331;DHT22;58851;42.984;20.336;2023-05-10T09:59:25;487.10;128.00
55331;DHT22;58851;42.984;20.336;2023-05-10T10:01:55;512.00;128.00
55331;DHT22;58851;42.984;20.336;2023-05-10T10:04:21;512.20;128.00
55331;DHT22;58851;42.984;20.336;2023-05-10T10:07:02;512.30;128.00
55331;DHT22;58851;42.984;20.336;2023-05-10T10:09:28;512.50;128.00
55331;DHT22;58851;42.984;20.336;2023-05-10T10:11:54;512.30;128.00
55331;DHT22;58851;42.984;20.336;2023-05-10T10:14:22;512.50;128.00
55331;DHT22;58851;42.984;20.336;2023-05-10T10:16:50;512.30;128.00
55331;DHT22;58851;42.984;20.336;2023-05-10T10:19:20;512.10;128.00
55331;DHT22;58851;42.984;20.336;2023-05-10T10:21:47;512.50;128.00
55331;DHT22;58851;42.984;20.336;2023-05-10T10:24:12;512.50;128.00
55331;DHT22;58851;42.984;20.336;2023-05-10T10:26:39;512.10;128.00
55331;DHT22;58851;42.984;20.336;2023-05-10T10:29:36;512.00;128.00
55331;DHT22;58851;42.984;20.336;2023-05-10T10:32:19;487.20;128.00
55331;DHT22;58851;42.984;20.336;2023-05-10T10:34:46;486.90;128.00
55331;DHT22;58851;42.984;20.336;2023-05-10T10:37:12;487.00;128.00
55331;DHT22;58851;42.984;20.336;2023-05-10T10:39:38;486.90;128.00
55331;DHT22;58851;42.984;20.336;2023-05-10T10:42:04;486.90;128.00
55331;DHT22;58851;42.984;20.336;2023-05-10T10:49:28;512.00;128.00
55331;DHT22;58851;42.984;20.336;2023-05-10T10:54:52;487.30;128.00
55331;DHT22;58851;42.984;20.336;2023-05-10T10:57:19;512.10;128.00
55331;DHT22;58851;42.984;20.336;2023-05-10T10:59:47;512.20;128.00
55331;DHT22;58851;42.984;20.336;2023-05-10T11:07:59;512.60;128.00
55331;DHT22;58851;42.984;20.336;2023-05-10T11:10:26;512.50;128.00
55331;DHT22;58851;42.984;20.336;2023-05-10T11:13:10;512.60;128.00
55331;DHT22;58851;42.984;20.336;2023-05-10T11:15:39;512.60;128.00
55331;DHT22;58851;42.984;20.336;2023-05-10T11:18:23;512.60;128.00
55331;DHT22;58851;42.984;20.336;2023-05-10T11:20:50;512.70;128.00
55331;DHT22;58851;42.984;20.336;2023-05-10T11:23:16;512.90;128.00
55331;DHT22;58851;42.984;20.336;2023-05-10T11:25:44;537.80;128.00
55331;DHT22;58851;42.984;20.336;2023-05-10T11:28:11;537.90;128.00
55331;DHT22;58851;42.984;20.336;2023-05-10T11:30:42;537.80;128.00
55331;DHT22;58851;42.984;20.336;2023-05-10T11:33:09;538.20;128.00
55331;DHT22;58851;42.984;20.336;2023-05-10T11:35:39;538.30;128.00
55331;DHT22;58851;42.984;20.336;2023-05-10T11:38:10;538.20;128.00
55331;DHT22;58851;42.984;20.336;2023-05-10T11:40:37;538.20;128.00
55331;DHT22;58851;42.984;20.336;2023-05-10T11:43:03;563.20;128.00
55331;DHT22;58851;42.984;20.336;2023-05-10T11:45:32;563.30;128.00
55331;DHT22;58851;42.984;20.336;2023-05-10T11:47:59;538.50;128.00
55331;DHT22;58851;42.984;20.336;2023-05-10T11:50:25;538.40;128.00
55331;DHT22;58851;42.984;20.336;2023-05-10T11:52:55;563.20;128.00
55331;DHT22;58851;42.984;20.336;2023-05-10T11:55:22;538.50;128.00
55331;DHT22;58851;42.984;20.336;2023-05-10T11:57:54;538.50;128.00
55331;DHT22;58851;42.984;20.336;2023-05-10T12:00:20;538.40;128.00
55331;DHT22;58851;42.984;20.336;2023-05-10T12:02:47;538.50;128.00
55331;DHT22;58851;42.984;20.336;2023-05-10T12:05:13;538.50;128.00
55331;DHT22;58851;42.984;20.336;2023-05-10T12:07:39;538.40;128.00
55331;DHT22;58851;42.984;20.336;2023-05-10T12:10:09;538.40;128.00
55331;DHT22;58851;42.984;20.336;2023-05-10T12:12:45;563.20;128.00
55331;DHT22;58851;42.984;20.336;2023-05-10T12:15:20;563.20;128.00
55331;DHT22;58851;42.984;20.336;2023-05-10T12:17:47;538.30;128.00
55331;DHT22;58851;42.984;20.336;2023-05-10T12:22:51;538.50;128.00
55331;DHT22;58851;42.984;20.336;2023-05-10T12:25:19;538.30;128.00
55331;DHT22;58851;42.984;20.336;2023-05-10T12:27:56;538.40;128.00
55331;DHT22;58851;42.984;20.336;2023-05-10T12:30:30;538.10;128.00
55331;DHT22;58851;42.984;20.336;2023-05-10T12:33:12;538.10;128.00
55331;DHT22;58851;42.984;20.336;2023-05-10T12:35:48;537.80;128.00
55331;DHT22;58851;42.984;20.336;2023-05-10T12:38:29;537.60;128.00
55331;DHT22;58851;42.984;20.336;2023-05-10T12:41:01;537.80;128.00
55331;DHT22;58851;42.984;20.336;2023-05-10T12:43:27;537.80;128.00
55331;DHT22;58851;42.984;20.336;2023-05-10T12:45:53;537.70;128.00
55331;DHT22;58851;42.984;20.336;2023-05-10T12:48:19;512.90;128.00
55331;DHT22;58851;42.984;20.336;2023-05-10T12:50:46;512.40;128.00
55331;DHT22;58851;42.984;20.336;2023-05-10T12:53:13;512.20;128.00
55331;DHT22;58851;42.984;20.336;2023-05-10T12:55:43;512.20;128.00
55331;DHT22;58851;42.984;20.336;2023-05-10T12:58:10;512.00;128.00
55331;DHT22;58851;42.984;20.336;2023-05-10T13:00:36;487.30;128.00
55331;DHT22;58851;42.984;20.336;2023-05-10T13:03:06;486.80;128.00
55331;DHT22;58851;42.984;20.336;2023-05-10T13:05:32;486.70;128.00
55331;DHT22;58851;42.984;20.336;2023-05-10T13:07:58;486.60;128.00
55331;DHT22;58851;42.984;20.336;2023-05-10T13:10:24;486.50;128.00
55331;DHT22;58851;42.984;20.336;2023-05-10T13:12:50;486.40;128.00
55331;DHT22;58851;42.984;20.336;2023-05-10T13:15:16;486.40;128.00
55331;DHT22;58851;42.984;20.336;2023-05-10T13:17:42;486.40;128.00
55331;DHT22;58851;42.984;20.336;2023-05-10T13:20:09;461.70;128.00
55331;DHT22;58851;42.984;20.336;2023-05-10T13:22:35;461.50;128.00
55331;DHT22;58851;42.984;20.336;2023-05-10T13:25:01;461.40;128.00
55331;DHT22;58851;42.984;20.336;2023-05-10T13:27:27;461.20;128.00
55331;DHT22;58851;42.984;20.336;2023-05-10T13:29:53;461.10;128.00
55331;DHT22;58851;42.984;20.336;2023-05-10T13:32:20;461.10;128.00
55331;DHT22;58851;42.984;20.336;2023-05-10T13:34:46;460.80;128.00
55331;DHT22;58851;42.984;20.336;2023-05-10T13:37:11;460.80;128.00
55331;DHT22;58851;42.984;20.336;2023-05-10T13:39:37;460.80;128.00
55331;DHT22;58851;42.984;20.336;2023-05-10T13:42:04;460.90;128.00
55331;DHT22;58851;42.984;20.336;2023-05-10T13:44:30;436.00;128.00
55331;DHT22;58851;42.984;20.336;2023-05-10T13:46:56;436.10;128.00
55331;DHT22;58851;42.984;20.336;2023-05-10T13:49:22;436.10;128.00
55331;DHT22;58851;42.984;20.336;2023-05-10T13:51:48;436.10;128.00
55331;DHT22;58851;42.984;20.336;2023-05-10T13:54:13;436.10;128.00
55331;DHT22;58851;42.984;20.336;2023-05-10T13:56:41;436.00;128.00
55331;DHT22;58851;42.984;20.336;2023-05-10T13:59:07;435.80;128.00
55331;DHT22;58851;42.984;20.336;2023-05-10T14:01:33;435.70;128.00
55331;DHT22;58851;42.984;20.336;2023-05-10T14:04:00;435.60;128.00
55331;DHT22;58851;42.984;20.336;2023-05-10T14:06:25;435.40;128.00
55331;DHT22;58851;42.984;20.336;2023-05-10T14:08:53;435.40;128.00
55331;DHT22;58851;42.984;20.336;2023-05-10T14:11:19;435.40;128.00
55331;DHT22;58851;42.984;20.336;2023-05-10T14:13:45;435.20;128.00
55331;DHT22;58851;42.984;20.336;2023-05-10T14:16:11;435.30;128.00
55331;DHT22;58851;42.984;20.336;2023-05-10T14:18:37;435.30;128.00
55331;DHT22;58851;42.984;20.336;2023-05-10T14:21:03;435.20;128.00
55331;DHT22;58851;42.984;20.336;2023-05-10T14:23:29;410.50;128.00
55331;DHT22;58851;42.984;20.336;2023-05-10T14:25:55;410.50;332.80
55331;DHT22;58851;42.984;20.336;2023-05-10T14:28:21;410.30;358.40
55331;DHT22;58851;42.984;20.336;2023-05-10T14:30:49;410.30;153.60
55331;DHT22;58851;42.984;20.336;2023-05-10T14:33:16;410.30;128.00
55331;DHT22;58851;42.984;20.336;2023-05-10T14:35:42;410.20;128.00
55331;DHT22;58851;42.984;20.336;2023-05-10T14:38:08;410.30;332.80
55331;DHT22;58851;42.984;20.336;2023-05-10T14:40:33;410.50;486.40
55331;DHT22;58851;42.984;20.336;2023-05-10T14:43:00;410.40;128.00
55331;DHT22;58851;42.984;20.336;2023-05-10T14:45:26;410.30;332.80
55331;DHT22;58851;42.984;20.336;2023-05-10T14:47:52;410.50;384.00
55331;DHT22;58851;42.984;20.336;2023-05-10T14:50:17;410.40;128.00
55331;DHT22;58851;42.984;20.336;2023-05-10T14:52:44;410.50;128.00
55331;DHT22;58851;42.984;20.336;2023-05-10T14:55:10;410.50;128.00
55331;DHT22;58851;42.984;20.336;2023-05-10T14:57:36;435.20;128.00
55331;DHT22;58851;42.984;20.336;2023-05-10T15:00:04;435.50;128.00
55331;DHT22;58851;42.984;20.336;2023-05-10T15:02:31;435.50;128.00
55331;DHT22;58851;42.984;20.336;2023-05-10T15:04:57;435.60;128.00
55331;DHT22;58851;42.984;20.336;2023-05-10T15:07:23;435.70;128.00
55331;DHT22;58851;42.984;20.336;2023-05-10T15:09:50;435.80;128.00
55331;DHT22;58851;42.984;20.336;2023-05-10T15:12:18;435.90;128.00
55331;DHT22;58851;42.984;20.336;2023-05-10T15:14:43;460.80;128.00
55331;DHT22;58851;42.984;20.336;2023-05-10T15:17:10;461.10;128.00
55331;DHT22;58851;42.984;20.336;2023-05-10T15:19:36;461.40;128.00
55331;DHT22;58851;42.984;20.336;2023-05-10T15:22:03;461.40;128.00